EDT,Max TemperatureF,Mean TemperatureF,Min TemperatureF,Max Dew PointF,MeanDew PointF,Min DewpointF,Max Humidity, Mean Humidity, Min Humidity, Max Sea Level PressureIn, Mean Sea Level PressureIn, Min Sea Level PressureIn, Max VisibilityMiles, Mean VisibilityMiles, Min VisibilityMiles, Max Wind SpeedMPH, Mean Wind SpeedMPH, Max Gust SpeedMPH,PrecipitationIn, CloudCover, Events, WindDirDegrees
2013-5-1,75,60,45,47,38,33,90,48,24,30.43,30.38,30.33,10,10,9,14,6,18,0.00,0,,131
2013-5-2,80,62,45,44,38,32,74,42,21,30.46,30.37,30.27,10,10,10,10,5,,0.00,0,,93
2013-5-3,72,64,54,41,37,30,49,39,25,30.40,30.33,30.28,10,10,10,16,12,26,0.00,3,,116
2013-5-4,75,60,44,44,39,34,79,49,30,30.34,30.26,30.17,10,10,10,8,4,,0.00,0,,131
2013-5-5,77,60,46,45,39,31,79,48,22,30.25,30.19,30.11,10,10,10,14,6,20,0.00,0,,128
2013-5-6,77,57,39,40,36,30,82,45,22,30.23,30.15,30.04,10,10,10,8,4,,0.00,0,,118
2013-5-7,80,63,46,52,45,37,90,52,22,30.15,30.09,30.01,10,10,10,9,4,,0.00,0,,120
2013-5-8,71,60,50,61,55,46,93,78,61,30.11,30.04,29.96,10,10,9,14,5,20,0.07,4,Rain,106
2013-5-9,71,62,52,57,53,49,97,77,47,29.96,29.93,29.88,10,10,10,8,5,,0.00,3,,122
2013-5-10,73,60,48,60,54,47,100,86,48,30.00,29.93,29.80,10,5,0,12,4,,0.27,6,Fog-Rain-Thunderstorm,101
2013-5-11,64,57,50,60,53,45,96,86,74,29.78,29.72,29.68,10,9,2,18,9,26,0.23,8,Rain,287
2013-5-12,55,46,37,47,37,25,96,74,33,29.91,29.79,29.70,10,10,6,23,9,33,0.06,7,Rain,284
2013-5-13,50,42,32,35,31,24,93,71,38,30.12,29.98,29.90,10,10,8,20,11,30,0.11,6,Rain-Snow,275
2013-5-14,55,42,28,34,28,22,92,63,29,30.17,30.11,30.04,10,10,3,12,4,,0.00,1,,277
2013-5-15,68,50,33,54,40,28,85,65,48,30.04,29.80,29.57,10,10,5,17,8,28,0.04,4,Rain,127
2013-5-16,75,56,39,45,39,33,93,57,23,29.95,29.78,29.72,10,10,5,26,7,39,0.00,0,,307
2013-5-17,66,52,39,44,41,35,86,63,42,30.26,30.14,29.98,10,10,10,10,5,,0.00,2,,318
2013-5-18,72,56,39,46,42,37,93,62,32,30.31,30.25,30.19,10,10,10,7,2,,0.00,0,,142
2013-5-19,62,58,54,56,52,46,83,78,70,30.25,30.18,30.12,10,10,10,12,9,,0.00,7,Rain,111
2013-5-20,82,70,59,63,59,54,87,72,50,30.10,30.02,29.91,10,10,10,8,4,,0.00,5,,124
2013-5-21,87,74,64,68,64,61,100,82,49,29.94,29.86,29.75,10,8,2,15,6,30,0.81,4,Rain-Thunderstorm,85
2013-5-22,84,74,63,70,64,61,97,79,51,29.83,29.78,29.71,10,9,3,22,5,34,0.17,3,Rain-Thunderstorm,122
2013-5-23,77,68,62,63,61,59,97,83,62,29.79,29.75,29.71,10,9,4,15,5,24,0.29,7,Rain,173
2013-5-24,59,52,43,58,44,38,96,89,76,30.11,29.96,29.73,10,8,2,17,10,23,0.64,8,Rain,309
2013-5-25,51,47,44,42,39,36,93,76,61,30.12,30.08,30.06,10,10,8,17,8,33,0.13,8,Rain,325
2013-5-26,61,52,41,40,37,32,89,63,36,30.17,30.09,30.01,10,10,10,22,13,33,0.00,4,,302
2013-5-27,68,50,35,41,35,29,93,60,24,30.26,30.20,30.16,10,10,9,16,4,23,0.00,0,,291
2013-5-28,66,52,37,55,46,35,94,71,45,30.20,30.14,30.04,10,10,10,12,6,,0.03,4,Rain,129
2013-5-29,80,68,57,68,60,55,100,90,60,30.05,29.99,29.92,10,7,0,28,7,37,1.08,6,Fog-Rain,119
2013-5-30,84,70,57,69,63,57,100,82,53,30.12,30.08,30.04,10,8,2,12,2,,0.00,2,,294
2013-5-31,89,76,62,69,64,61,96,69,40,30.11,30.02,29.92,10,8,5,12,3,,0.00,1,,164